Time;durP1;ratioP1;P1;durP2;ratioP2;P2;SDS_P1;SDS_P2;PMS_P1;PMS_P2;Temp;Humidity;BMP_temperature;BMP_pressure;BME280_temperature;BME280_humidity;BME280_pressure;Samples;Min_cycle;Max_cycle;Signal;HPM_P1;HPM_P2
2022/10/20 00:01:07;;;;;;;11.20;5.47;;;7.00;99.90;;;;;;4959356;28;20061;-69
2022/10/20 00:03:33;;;;;;;8.82;5.10;;;7.00;99.90;;;;;;4958554;28;20076;-69
2022/10/20 00:06:10;;;;;;;9.85;5.53;;;6.90;99.90;;;;;;4942163;28;20078;-69
2022/10/20 00:08:37;;;;;;;12.48;5.47;;;6.90;99.90;;;;;;4966196;28;20349;-69
2022/10/20 00:11:03;;;;;;;7.13;4.95;;;6.90;99.90;;;;;;4956252;28;20047;-69
2022/10/20 00:13:29;;;;;;;11.07;5.60;;;6.80;99.90;;;;;;4974985;28;20034;-68
2022/10/20 00:15:55;;;;;;;9.73;5.30;;;6.80;99.90;;;;;;4960299;28;20480;-69
2022/10/20 00:18:22;;;;;;;8.27;5.80;;;6.80;99.90;;;;;;4974848;28;20045;-69
2022/10/20 00:20:49;;;;;;;13.05;5.40;;;6.80;99.90;;;;;;4956110;28;20135;-69
2022/10/20 00:23:14;;;;;;;9.82;5.20;;;6.80;99.90;;;;;;4957836;28;20043;-69
2022/10/20 00:25:40;;;;;;;13.50;5.15;;;6.80;99.90;;;;;;4975686;28;20490;-68
2022/10/20 00:28:06;;;;;;;10.65;5.32;;;6.80;99.90;;;;;;4976172;28;20035;-69
2022/10/20 00:30:33;;;;;;;7.13;5.07;;;6.80;99.90;;;;;;4927383;28;20206;-68
2022/10/20 00:33:00;;;;;;;12.60;5.28;;;6.70;99.90;;;;;;4959461;28;20039;-69
2022/10/20 00:35:25;;;;;;;6.50;5.00;;;6.70;99.90;;;;;;4955378;28;20047;-69
2022/10/20 00:37:51;;;;;;;8.00;5.03;;;6.70;99.90;;;;;;4940144;28;20393;-69
2022/10/20 00:40:17;;;;;;;9.10;5.28;;;6.70;99.90;;;;;;4925636;28;20051;-68
2022/10/20 00:42:46;;;;;;;9.98;5.07;;;6.70;99.90;;;;;;4959090;28;20046;-69
2022/10/20 00:45:18;;;;;;;9.05;5.35;;;6.70;99.90;;;;;;4954208;28;20078;-68
2022/10/20 00:47:51;;;;;;;10.23;5.63;;;6.60;99.90;;;;;;4954885;28;20043;-68
2022/10/20 00:50:26;;;;;;;10.32;5.65;;;6.70;99.90;;;;;;4954219;28;20086;-67
2022/10/20 00:52:53;;;;;;;12.75;5.20;;;6.60;99.90;;;;;;4956964;28;20453;-68
2022/10/20 00:55:24;;;;;;;14.15;5.35;;;6.60;99.90;;;;;;4953501;28;20130;-69
2022/10/20 00:57:51;;;;;;;9.38;5.18;;;6.60;99.90;;;;;;4954111;28;20039;-68
2022/10/20 01:00:17;;;;;;;10.98;5.25;;;6.60;99.90;;;;;;4955358;28;20110;-68
2022/10/20 01:02:44;;;;;;;10.18;5.53;;;6.60;99.90;;;;;;4935955;28;20061;-69
2022/10/20 01:05:10;;;;;;;11.57;5.53;;;6.50;99.90;;;;;;4955760;28;20074;-69
2022/10/20 01:07:36;;;;;;;12.27;5.25;;;6.50;99.90;;;;;;4955751;28;20118;-69
2022/10/20 01:10:03;;;;;;;10.65;5.35;;;6.50;99.90;;;;;;4939640;28;20134;-69
2022/10/20 01:12:45;;;;;;;10.45;5.18;;;6.50;99.90;;;;;;4953958;28;20050;-69
2022/10/20 01:15:19;;;;;;;7.88;5.47;;;6.40;99.90;;;;;;4954903;28;20043;-69
2022/10/20 01:18:00;;;;;;;13.43;5.22;;;6.40;99.90;;;;;;4955513;28;20073;-68
2022/10/20 01:21:27;;;;;;;8.20;5.18;;;6.40;99.90;;;;;;4952024;28;20121;-68
2022/10/20 01:24:02;;;;;;;8.98;5.30;;;6.40;99.90;;;;;;4926735;29;20076;-69
2022/10/20 01:26:33;;;;;;;11.32;6.03;;;6.40;99.90;;;;;;4927923;29;20044;-68
2022/10/20 01:28:59;;;;;;;10.30;6.18;;;6.30;99.90;;;;;;4934668;28;20047;-69
2022/10/20 01:32:08;;;;;;;7.35;4.85;;;6.30;99.90;;;;;;4952496;28;21429;-69
2022/10/20 01:34:41;;;;;;;10.38;5.15;;;6.30;99.90;;;;;;4969610;28;20390;-69
2022/10/20 01:37:29;;;;;;;7.13;5.68;;;6.30;99.90;;;;;;4937768;28;20063;-68
2022/10/20 01:40:04;;;;;;;11.27;5.80;;;6.30;99.90;;;;;;4955580;28;20031;-69
2022/10/20 01:42:29;;;;;;;10.52;5.57;;;6.30;99.90;;;;;;4954955;28;20043;-69
2022/10/20 01:45:01;;;;;;;9.88;5.35;;;6.20;99.90;;;;;;4951465;28;21319;-69
2022/10/20 01:47:28;;;;;;;8.20;5.63;;;6.20;99.90;;;;;;4953610;28;20392;-69
2022/10/20 01:49:56;;;;;;;11.98;5.70;;;6.20;99.90;;;;;;4938160;28;20097;-69
2022/10/20 01:52:23;;;;;;;10.90;5.57;;;6.10;99.90;;;;;;4939819;28;20169;-69
2022/10/20 01:54:49;;;;;;;9.15;5.32;;;6.10;99.90;;;;;;4954993;28;20042;-69
2022/10/20 01:57:44;;;;;;;11.80;6.05;;;6.10;99.90;;;;;;4952257;28;20039;-68
2022/10/20 02:00:11;;;;;;;8.05;5.70;;;6.10;99.90;;;;;;4954987;28;20047;-68
2022/10/20 02:03:15;;;;;;;14.07;6.32;;;6.10;99.90;;;;;;4955432;28;20121;-69
2022/10/20 02:05:51;;;;;;;10.77;6.80;;;6.10;99.90;;;;;;4955171;28;20051;-69
2022/10/20 02:08:32;;;;;;;10.90;6.57;;;6.10;99.90;;;;;;4951293;28;20051;-68
2022/10/20 02:11:01;;;;;;;15.07;6.20;;;6.10;99.90;;;;;;4954074;28;20564;-69
2022/10/20 02:13:29;;;;;;;9.35;6.10;;;6.10;99.90;;;;;;4954508;28;20078;-67
2022/10/20 02:15:57;;;;;;;11.70;6.63;;;6.00;99.90;;;;;;4955562;28;20106;-68
2022/10/20 02:18:38;;;;;;;14.77;6.60;;;6.10;99.90;;;;;;4936291;28;20043;-69
2022/10/20 02:21:05;;;;;;;12.68;6.40;;;6.10;99.90;;;;;;4955586;28;20042;-69
2022/10/20 02:23:36;;;;;;;12.98;6.55;;;6.00;99.90;;;;;;4952126;28;20514;-69
2022/10/20 02:26:05;;;;;;;11.52;6.32;;;6.00;99.90;;;;;;4955592;28;20030;-69
2022/10/20 02:28:34;;;;;;;11.50;6.38;;;6.00;99.90;;;;;;4946041;28;20035;-69
2022/10/20 02:31:02;;;;;;;9.15;6.03;;;6.00;99.90;;;;;;4939363;28;20046;-69
2022/10/20 02:33:29;;;;;;;11.93;6.53;;;6.00;99.90;;;;;;4950124;28;20042;-69
2022/10/20 02:35:57;;;;;;;9.77;6.40;;;6.00;99.90;;;;;;4955798;28;20153;-69
2022/10/20 02:38:23;;;;;;;9.80;6.63;;;6.00;99.90;;;;;;4938884;28;20034;-69
2022/10/20 02:40:48;;;;;;;9.43;6.20;;;6.00;99.90;;;;;;4934370;28;20568;-69
2022/10/20 02:43:14;;;;;;;9.50;6.20;;;6.00;99.90;;;;;;4953345;28;20576;-69
2022/10/20 02:45:40;;;;;;;10.07;7.28;;;6.00;99.90;;;;;;4936625;28;20637;-69
2022/10/20 02:48:08;;;;;;;10.88;7.25;;;6.00;99.90;;;;;;4947101;28;20570;-69
2022/10/20 02:50:35;;;;;;;10.48;6.95;;;5.90;99.90;;;;;;4954229;28;20433;-68
2022/10/20 02:53:01;;;;;;;8.18;6.80;;;5.90;99.90;;;;;;4953432;28;20047;-68
2022/10/20 02:55:27;;;;;;;14.07;8.00;;;5.90;99.90;;;;;;4953191;28;20066;-69
2022/10/20 02:57:52;;;;;;;11.40;7.07;;;5.90;99.90;;;;;;4920832;28;20043;-69
2022/10/20 03:00:19;;;;;;;15.00;7.72;;;5.90;99.90;;;;;;4938520;28;20370;-69
2022/10/20 03:02:46;;;;;;;13.75;8.05;;;5.90;99.90;;;;;;4952990;28;20129;-69
2022/10/20 03:05:12;;;;;;;14.63;8.38;;;5.90;99.90;;;;;;4954220;28;20050;-69
2022/10/20 03:07:38;;;;;;;11.82;7.32;;;5.90;99.90;;;;;;4936157;28;20081;-69
2022/10/20 03:10:04;;;;;;;13.13;8.07;;;5.90;99.90;;;;;;4934956;28;20464;-69
2022/10/20 03:12:30;;;;;;;11.48;7.95;;;5.90;99.90;;;;;;4951038;28;20456;-69
2022/10/20 03:14:56;;;;;;;13.63;8.05;;;5.90;99.90;;;;;;4919754;28;20032;-68
2022/10/20 03:17:22;;;;;;;12.75;8.77;;;5.90;99.90;;;;;;4938713;28;21470;-69
2022/10/20 03:19:47;;;;;;;11.30;8.77;;;5.90;99.90;;;;;;4937405;28;20055;-68
2022/10/20 03:22:13;;;;;;;11.70;8.13;;;5.90;99.90;;;;;;4951856;28;20556;-69
2022/10/20 03:24:39;;;;;;;15.30;8.88;;;5.90;99.90;;;;;;4952630;28;20122;-68
2022/10/20 03:27:05;;;;;;;12.18;9.10;;;5.90;99.90;;;;;;4936432;28;20118;-70
2022/10/20 03:29:30;;;;;;;12.93;9.07;;;5.90;99.90;;;;;;4937735;28;20157;-68
2022/10/20 03:31:56;;;;;;;14.05;9.32;;;5.80;99.90;;;;;;4935501;28;20075;-68
2022/10/20 03:34:22;;;;;;;13.85;9.38;;;5.80;99.90;;;;;;4953453;28;20074;-68
2022/10/20 03:36:48;;;;;;;15.63;8.40;;;5.80;99.90;;;;;;4953513;28;20058;-69
2022/10/20 03:39:13;;;;;;;14.63;9.13;;;6.00;99.90;;;;;;4938249;28;20098;-69
2022/10/20 03:41:39;;;;;;;13.57;9.38;;;5.80;99.90;;;;;;4955711;28;20540;-69
2022/10/20 03:44:05;;;;;;;15.82;9.90;;;5.80;99.90;;;;;;4950354;28;20090;-67
2022/10/20 03:46:30;;;;;;;16.17;10.38;;;5.80;99.90;;;;;;4954067;28;20054;-68
2022/10/20 03:48:56;;;;;;;15.85;10.18;;;5.80;99.90;;;;;;4938578;29;20047;-69
2022/10/20 03:51:22;;;;;;;15.80;10.13;;;5.90;99.90;;;;;;4944537;28;20102;-69
2022/10/20 03:53:47;;;;;;;16.05;10.35;;;5.90;99.90;;;;;;4955058;28;20266;-69
2022/10/20 03:56:17;;;;;;;15.02;9.55;;;5.90;99.90;;;;;;4922601;28;20070;-69
2022/10/20 03:58:42;;;;;;;16.05;9.35;;;5.90;99.90;;;;;;4952434;28;20123;-69
2022/10/20 04:01:18;;;;;;;13.48;9.82;;;5.90;99.90;;;;;;4948046;28;20119;-69
2022/10/20 04:03:44;;;;;;;16.70;10.05;;;5.80;99.90;;;;;;4954289;28;20042;-69
2022/10/20 04:06:12;;;;;;;15.88;10.52;;;5.80;99.90;;;;;;4938220;28;20082;-68
2022/10/20 04:08:38;;;;;;;16.52;10.27;;;5.80;99.90;;;;;;4952648;28;20122;-69
2022/10/20 04:11:05;;;;;;;16.48;10.23;;;5.80;99.90;;;;;;4950179;28;20039;-69
2022/10/20 04:13:30;;;;;;;16.48;10.10;;;5.80;99.90;;;;;;4952874;28;20066;-69
2022/10/20 04:15:56;;;;;;;15.15;10.32;;;5.80;99.90;;;;;;4952184;28;20066;-69
2022/10/20 04:18:22;;;;;;;15.90;10.38;;;5.80;99.90;;;;;;4919737;28;20118;-69
2022/10/20 04:20:48;;;;;;;16.90;11.05;;;5.80;99.90;;;;;;4921529;28;20055;-69
2022/10/20 04:23:14;;;;;;;15.70;10.82;;;5.80;99.90;;;;;;4957711;28;20101;-69
2022/10/20 04:25:44;;;;;;;14.48;10.45;;;5.80;99.90;;;;;;4941840;28;20052;-69
2022/10/20 04:28:11;;;;;;;15.55;10.95;;;5.80;99.90;;;;;;4952866;28;20074;-68
2022/10/20 04:30:40;;;;;;;15.65;11.13;;;5.80;99.90;;;;;;4954069;28;20383;-69
2022/10/20 04:33:06;;;;;;;17.55;11.45;;;5.80;99.90;;;;;;4942722;28;20071;-69
2022/10/20 04:35:32;;;;;;;17.23;11.15;;;5.80;99.90;;;;;;4954963;28;20098;-69
2022/10/20 04:37:58;;;;;;;18.80;11.70;;;5.80;99.90;;;;;;4956808;28;20044;-69
2022/10/20 04:40:23;;;;;;;18.38;11.70;;;5.80;99.90;;;;;;4938698;28;20047;-69
2022/10/20 04:42:49;;;;;;;19.27;11.73;;;5.80;99.90;;;;;;4958069;28;20071;-69
2022/10/20 04:45:15;;;;;;;19.17;12.45;;;5.80;99.90;;;;;;4954506;28;20130;-69
2022/10/20 04:47:41;;;;;;;19.38;12.68;;;5.80;99.90;;;;;;4958543;28;20043;-69
2022/10/20 04:50:07;;;;;;;18.85;12.60;;;5.80;99.90;;;;;;4956591;28;20079;-69
2022/10/20 04:52:33;;;;;;;19.52;12.68;;;5.80;99.90;;;;;;4958595;28;20560;-69
2022/10/20 04:54:58;;;;;;;19.55;13.07;;;5.80;99.90;;;;;;4956803;28;20118;-69
2022/10/20 04:57:24;;;;;;;19.75;12.70;;;5.80;99.90;;;;;;4939223;28;20075;-69
2022/10/20 04:59:50;;;;;;;19.25;12.35;;;5.80;99.90;;;;;;4955226;28;20031;-69
2022/10/20 05:02:16;;;;;;;20.08;13.27;;;5.80;99.90;;;;;;4952492;28;20475;-68
2022/10/20 05:04:42;;;;;;;17.50;12.77;;;5.80;99.90;;;;;;4957916;28;20039;-69
2022/10/20 05:07:08;;;;;;;18.42;13.05;;;5.80;99.90;;;;;;4937081;28;20039;-69
2022/10/20 05:09:33;;;;;;;18.40;12.43;;;5.80;99.90;;;;;;4942066;28;20051;-68
2022/10/20 05:11:59;;;;;;;17.20;12.82;;;5.80;99.90;;;;;;4955652;28;20477;-69
2022/10/20 05:14:25;;;;;;;19.25;12.93;;;5.80;99.90;;;;;;4951821;28;20039;-68
2022/10/20 05:16:51;;;;;;;19.38;12.73;;;5.80;99.90;;;;;;4954128;28;20039;-69
2022/10/20 05:19:17;;;;;;;19.88;12.60;;;5.80;99.90;;;;;;4957297;28;20608;-68
2022/10/20 05:21:43;;;;;;;17.33;12.50;;;5.80;99.90;;;;;;4955140;28;20035;-67
2022/10/20 05:24:15;;;;;;;19.00;13.00;;;5.80;99.90;;;;;;4936666;29;20050;-68
2022/10/20 05:26:41;;;;;;;18.70;13.23;;;5.80;99.90;;;;;;4952822;28;20043;-68
2022/10/20 05:29:09;;;;;;;20.58;12.38;;;5.80;99.90;;;;;;4950512;28;20069;-68
2022/10/20 05:31:40;;;;;;;18.88;12.85;;;5.70;99.90;;;;;;4958780;28;20099;-69
2022/10/20 05:34:06;;;;;;;18.02;12.43;;;5.70;99.90;;;;;;4956150;28;20051;-69
2022/10/20 05:36:32;;;;;;;20.23;13.20;;;5.70;99.90;;;;;;4937410;28;20054;-70
2022/10/20 05:38:58;;;;;;;19.75;13.30;;;5.70;99.90;;;;;;4954699;28;20062;-69
2022/10/20 05:41:29;;;;;;;19.23;13.93;;;5.90;99.90;;;;;;4953350;28;20074;-70
2022/10/20 05:43:57;;;;;;;22.15;13.60;;;5.60;99.90;;;;;;4937388;28;20038;-69
2022/10/20 05:46:25;;;;;;;19.10;12.95;;;5.60;99.90;;;;;;4959456;28;20129;-68
2022/10/20 05:48:57;;;;;;;19.92;13.23;;;5.60;99.90;;;;;;4955340;28;20094;-69
2022/10/20 05:51:26;;;;;;;21.48;13.48;;;5.60;99.90;;;;;;4956783;28;20043;-69
2022/10/20 05:53:55;;;;;;;17.00;13.18;;;5.60;99.90;;;;;;4956661;28;20898;-68
2022/10/20 05:56:21;;;;;;;25.00;14.23;;;5.50;99.90;;;;;;4956601;28;20110;-69
2022/10/20 05:58:47;;;;;;;20.90;13.82;;;5.60;99.90;;;;;;4972291;28;20043;-69
2022/10/20 06:01:19;;;;;;;20.02;13.65;;;5.50;99.90;;;;;;4953320;28;20393;-69
2022/10/20 06:03:59;;;;;;;21.73;13.95;;;5.50;99.90;;;;;;4974639;28;20030;-69
2022/10/20 06:06:29;;;;;;;22.45;14.63;;;6.00;99.90;;;;;;4956692;28;20046;-69
2022/10/20 06:08:57;;;;;;;20.63;14.55;;;5.50;99.90;;;;;;4937399;28;20031;-69
2022/10/20 06:11:23;;;;;;;18.63;13.43;;;5.50;99.90;;;;;;4957714;28;20046;-69
2022/10/20 06:13:50;;;;;;;23.60;14.57;;;5.50;99.90;;;;;;4959345;28;20031;-69
2022/10/20 06:16:21;;;;;;;20.10;14.40;;;5.40;99.90;;;;;;4941174;28;20041;-70
2022/10/20 06:18:47;;;;;;;21.42;13.27;;;5.40;99.90;;;;;;4949846;28;20109;-69
2022/10/20 06:21:16;;;;;;;22.00;14.93;;;5.40;99.90;;;;;;4954341;28;20070;-68
2022/10/20 06:23:43;;;;;;;22.15;15.27;;;5.40;99.90;;;;;;4936852;28;20141;-69
2022/10/20 06:26:11;;;;;;;23.52;14.80;;;5.40;99.90;;;;;;4953708;28;20070;-69
2022/10/20 06:28:38;;;;;;;22.88;14.23;;;5.50;99.90;;;;;;4957877;28;20559;-69
2022/10/20 06:31:11;;;;;;;23.08;14.25;;;5.40;99.90;;;;;;4961812;28;20407;-69
2022/10/20 06:33:38;;;;;;;21.85;13.88;;;5.40;99.90;;;;;;4974472;28;20039;-69
2022/10/20 06:36:04;;;;;;;22.58;14.43;;;5.50;99.90;;;;;;4938245;28;20038;-70
2022/10/20 06:38:30;;;;;;;20.92;14.95;;;5.50;99.90;;;;;;4955423;28;20460;-69
2022/10/20 06:40:55;;;;;;;20.63;14.50;;;5.50;99.90;;;;;;4924575;28;20129;-69
2022/10/20 06:43:21;;;;;;;21.33;14.75;;;5.50;99.90;;;;;;4970764;28;20035;-69
2022/10/20 06:46:17;;;;;;;21.52;14.18;;;5.50;99.90;;;;;;4928763;28;20054;-70
2022/10/20 06:48:44;;;;;;;23.65;14.68;;;5.60;99.90;;;;;;4935631;28;20126;-70
2022/10/20 06:51:12;;;;;;;25.42;14.32;;;5.60;99.90;;;;;;4947096;28;20047;-69
2022/10/20 06:53:38;;;;;;;23.15;15.00;;;5.60;99.90;;;;;;4930624;28;20051;-70
2022/10/20 06:56:10;;;;;;;21.45;13.80;;;5.70;99.90;;;;;;4931034;28;20101;-69
2022/10/20 06:58:37;;;;;;;;;;;5.70;99.90;;;;;;4947503;28;20035;-70
2022/10/20 07:01:06;;;;;;;27.33;14.48;;;5.80;99.90;;;;;;4957924;28;19922;-68
2022/10/20 07:03:34;;;;;;;21.00;15.13;;;5.80;99.90;;;;;;4946476;28;20137;-69
2022/10/20 07:06:01;;;;;;;20.48;14.35;;;5.90;99.90;;;;;;4942649;28;20079;-69
2022/10/20 07:08:29;;;;;;;23.27;14.25;;;5.90;99.90;;;;;;4945355;28;20078;-69
2022/10/20 07:11:01;;;;;;;22.83;14.55;;;6.00;99.90;;;;;;4945036;28;20134;-69
2022/10/20 07:13:28;;;;;;;22.43;13.93;;;6.00;99.90;;;;;;4943028;28;20042;-69
2022/10/20 07:15:55;;;;;;;19.85;13.48;;;6.10;99.90;;;;;;4963104;28;20042;-70
2022/10/20 07:18:22;;;;;;;20.00;13.40;;;6.20;99.90;;;;;;4960753;28;20035;-70
2022/10/20 07:20:48;;;;;;;20.55;13.82;;;6.20;99.90;;;;;;4944933;28;20050;-69
2022/10/20 07:23:15;;;;;;;19.08;13.48;;;6.30;99.90;;;;;;4928822;28;20047;-70
2022/10/20 07:25:40;;;;;;;22.38;13.98;;;6.40;99.90;;;;;;4929158;28;20082;-69
2022/10/20 07:28:06;;;;;;;22.55;13.30;;;6.40;99.90;;;;;;4928260;28;20453;-69
2022/10/20 07:30:40;;;;;;;22.17;14.50;;;6.50;99.90;;;;;;4962385;28;21429;-70
2022/10/20 07:33:07;;;;;;;20.58;12.65;;;6.50;99.90;;;;;;4918035;28;20539;-69
2022/10/20 07:35:33;;;;;;;20.15;13.38;;;6.50;99.90;;;;;;4961680;28;20039;-69
2022/10/20 07:37:59;;;;;;;19.67;13.75;;;6.60;99.90;;;;;;4945287;28;20526;-69
2022/10/20 07:40:24;;;;;;;15.93;12.40;;;6.60;99.90;;;;;;4962271;28;20043;-69
2022/10/20 07:42:50;;;;;;;20.63;13.30;;;6.70;99.90;;;;;;4931859;28;20113;-69
2022/10/20 07:45:16;;;;;;;22.02;13.68;;;6.70;99.90;;;;;;4926678;28;20070;-69
2022/10/20 07:47:42;;;;;;;18.60;11.95;;;6.80;99.90;;;;;;4909747;29;20489;-69
2022/10/20 07:50:09;;;;;;;19.42;12.07;;;6.80;99.90;;;;;;4951450;28;20039;-68
2022/10/20 07:52:34;;;;;;;21.13;13.32;;;6.80;99.90;;;;;;4942650;28;20047;-68
2022/10/20 07:55:00;;;;;;;17.27;11.95;;;6.90;99.90;;;;;;4947897;28;20560;-69
2022/10/20 07:57:26;;;;;;;20.85;13.00;;;7.00;99.90;;;;;;4939247;29;20043;-69
2022/10/20 07:59:51;;;;;;;18.55;12.43;;;7.00;99.90;;;;;;4940159;29;20035;-68
2022/10/20 08:02:20;;;;;;;21.42;12.35;;;7.00;99.90;;;;;;4955834;29;20596;-68
2022/10/20 08:04:46;;;;;;;19.98;12.95;;;7.10;99.90;;;;;;4936942;29;20155;-69
2022/10/20 08:07:11;;;;;;;17.85;12.60;;;7.10;99.90;;;;;;4955627;29;20043;-68
2022/10/20 08:09:37;;;;;;;20.10;11.70;;;7.20;99.90;;;;;;4954896;29;20245;-69
2022/10/20 08:12:03;;;;;;;18.52;12.88;;;7.20;99.90;;;;;;4940697;29;20943;-69
2022/10/20 08:14:35;;;;;;;20.05;11.95;;;7.30;99.90;;;;;;4953797;29;20038;-70
2022/10/20 08:17:02;;;;;;;20.20;12.95;;;7.30;99.90;;;;;;4938297;29;20094;-70
2022/10/20 08:19:28;;;;;;;17.30;11.90;;;7.40;99.90;;;;;;4954514;29;20456;-70
2022/10/20 08:21:54;;;;;;;18.05;11.55;;;7.40;99.90;;;;;;4954281;29;20062;-69
2022/10/20 08:24:20;;;;;;;14.48;10.35;;;7.50;99.90;;;;;;4940732;29;20497;-69
2022/10/20 08:26:46;;;;;;;20.55;12.25;;;7.60;99.90;;;;;;4954140;29;20046;-69
2022/10/20 08:29:13;;;;;;;19.10;12.48;;;7.60;99.90;;;;;;4922513;29;20047;-70
2022/10/20 08:31:39;;;;;;;17.02;11.43;;;7.60;99.90;;;;;;4922239;29;20079;-69
2022/10/20 08:34:05;;;;;;;17.80;11.63;;;7.70;99.90;;;;;;4940773;29;20058;-69
2022/10/20 08:36:31;;;;;;;20.50;12.30;;;7.80;99.90;;;;;;4954229;29;20557;-69
2022/10/20 08:39:00;;;;;;;15.07;10.93;;;7.80;99.90;;;;;;4953640;29;20113;-69
2022/10/20 08:41:32;;;;;;;16.60;11.32;;;7.80;99.90;;;;;;4970167;28;20073;-69
2022/10/20 08:44:00;;;;;;;18.15;11.20;;;7.90;99.90;;;;;;4955779;28;20039;-70
2022/10/20 08:46:33;;;;;;;16.23;11.18;;;7.70;99.90;;;;;;4940943;28;20074;-68
2022/10/20 08:49:00;;;;;;;13.80;10.73;;;8.00;99.90;;;;;;4974474;28;20027;-70
2022/10/20 08:51:33;;;;;;;13.70;10.07;;;8.20;99.90;;;;;;4923392;28;20389;-69
2022/10/20 08:54:00;;;;;;;;;;;8.20;99.90;;;;;;4941688;28;20117;-69
2022/10/20 08:56:29;;;;;;;18.77;10.57;;;8.30;99.90;;;;;;4956768;28;19918;-69
2022/10/20 08:58:55;;;;;;;14.25;10.88;;;8.40;99.90;;;;;;4957238;28;20054;-69
2022/10/20 09:01:24;;;;;;;16.50;9.73;;;8.50;99.90;;;;;;4974791;28;20134;-70
2022/10/20 09:04:11;;;;;;;18.15;10.07;;;8.60;99.90;;;;;;4942110;28;20046;-69
2022/10/20 09:06:42;;;;;;;16.98;11.13;;;8.70;99.90;;;;;;4946898;28;20039;-69
2022/10/20 09:09:16;;;;;;;19.55;10.55;;;8.80;99.90;;;;;;4973507;28;20110;-68
2022/10/20 09:11:43;;;;;;;22.52;10.45;;;8.90;99.90;;;;;;4955777;28;20042;-69
2022/10/20 09:14:11;;;;;;;15.52;10.50;;;9.00;99.90;;;;;;4954476;28;20054;-69
2022/10/20 09:16:38;;;;;;;13.98;9.32;;;9.10;99.90;;;;;;4940785;28;20090;-69
2022/10/20 09:19:20;;;;;;;14.93;9.32;;;9.20;99.90;;;;;;4972272;28;20512;-68
2022/10/20 09:21:52;;;;;;;13.32;9.77;;;9.10;99.90;;;;;;4956172;28;20081;-69
2022/10/20 09:24:21;;;;;;;16.37;9.63;;;9.20;99.90;;;;;;4956167;28;20527;-69
2022/10/20 09:26:49;;;;;;;17.50;9.95;;;9.20;99.90;;;;;;4954110;28;20097;-70
2022/10/20 09:29:35;;;;;;;13.25;9.15;;;9.20;99.90;;;;;;4956158;28;20035;-69
2022/10/20 09:32:00;;;;;;;15.65;8.68;;;9.30;99.90;;;;;;4953952;28;20034;-68
2022/10/20 09:34:34;;;;;;;11.63;8.45;;;9.30;99.90;;;;;;4940068;28;20042;-69
2022/10/20 09:37:10;;;;;;;16.00;9.65;;;9.40;99.90;;;;;;4955300;28;20045;-69
2022/10/20 09:39:51;;;;;;;13.93;8.90;;;9.40;99.90;;;;;;4955913;28;20053;-69
2022/10/20 09:42:26;;;;;;;12.98;9.27;;;9.50;99.90;;;;;;4953454;28;20130;-68
2022/10/20 09:44:58;;;;;;;15.52;9.48;;;9.60;99.90;;;;;;4954989;28;20156;-69
2022/10/20 09:47:26;;;;;;;12.27;9.30;;;9.60;99.90;;;;;;4954224;28;20093;-69
2022/10/20 09:49:59;;;;;;;12.90;9.13;;;9.70;99.90;;;;;;4939334;28;20510;-69
2022/10/20 09:52:39;;;;;;;13.00;9.02;;;9.70;99.90;;;;;;4960132;28;20078;-69
2022/10/20 09:55:26;;;;;;;15.20;8.82;;;9.80;99.90;;;;;;4955118;28;20099;-69
2022/10/20 09:57:55;;;;;;;15.02;8.82;;;9.80;99.90;;;;;;4972446;28;20456;-69
2022/10/20 10:00:33;;;;;;;10.38;8.35;;;9.90;99.90;;;;;;4951167;28;20070;-69
2022/10/20 10:03:21;;;;;;;12.90;9.05;;;10.00;99.90;;;;;;4940381;28;20074;-68
2022/10/20 10:05:48;;;;;;;12.48;8.70;;;10.10;99.90;;;;;;4972759;28;20068;-68
2022/10/20 10:08:16;;;;;;;11.57;9.18;;;10.20;99.90;;;;;;4953634;28;20406;-69
2022/10/20 10:10:44;;;;;;;10.52;8.75;;;10.20;99.90;;;;;;4956539;28;20492;-68
2022/10/20 10:13:35;;;;;;;14.65;9.00;;;10.40;99.90;;;;;;4957516;28;20046;-69
2022/10/20 10:16:09;;;;;;;13.07;9.02;;;10.40;99.90;;;;;;4955088;28;20042;-69
2022/10/20 10:18:37;;;;;;;13.88;8.30;;;10.40;99.90;;;;;;4953937;28;20500;-70
2022/10/20 10:21:21;;;;;;;12.60;8.43;;;10.50;99.90;;;;;;4955694;28;20109;-69
2022/10/20 10:23:59;;;;;;;13.68;8.48;;;10.50;99.90;;;;;;4952864;28;20096;-69
2022/10/20 10:26:32;;;;;;;12.10;8.30;;;10.60;99.90;;;;;;4955526;28;20046;-69
2022/10/20 10:28:58;;;;;;;12.73;9.20;;;10.60;99.90;;;;;;4956347;28;20043;-69
2022/10/20 10:31:25;;;;;;;16.05;8.57;;;10.60;99.90;;;;;;4939391;28;20039;-69
2022/10/20 10:34:19;;;;;;;11.75;7.97;;;10.60;99.90;;;;;;4939719;28;20117;-69
2022/10/20 10:36:45;;;;;;;12.57;8.65;;;10.80;99.90;;;;;;4972577;28;20049;-69
2022/10/20 10:39:14;;;;;;;13.68;8.02;;;10.90;99.90;;;;;;4954634;28;20129;-67
2022/10/20 10:41:48;;;;;;;12.52;8.73;;;11.10;99.90;;;;;;4954981;28;20050;-68
2022/10/20 10:44:23;;;;;;;11.95;8.05;;;11.40;99.90;;;;;;4954842;28;20449;-69
2022/10/20 10:47:05;;;;;;;13.52;8.55;;;11.60;99.90;;;;;;4951477;28;20063;-68
2022/10/20 10:49:51;;;;;;;;;;;11.80;99.90;;;;;;4952262;29;20071;-68
2022/10/20 10:52:19;;;;;;;9.80;8.18;;;11.90;99.90;;;;;;4965974;28;19926;-69
2022/10/20 10:55:24;;;;;;;11.55;8.20;;;12.00;99.90;;;;;;4951604;29;20113;-68
2022/10/20 10:58:10;;;;;;;11.20;8.15;;;12.10;99.90;;;;;;4950446;29;20114;-69
2022/10/20 11:00:35;;;;;;;10.57;7.93;;;12.20;99.90;;;;;;4950645;29;20122;-69
2022/10/20 11:03:10;;;;;;;13.35;8.88;;;12.20;99.90;;;;;;4938383;29;20126;-69
2022/10/20 11:05:50;;;;;;;10.60;8.00;;;12.20;99.90;;;;;;4952784;28;20122;-69
2022/10/20 11:08:21;;;;;;;9.43;7.47;;;12.10;99.90;;;;;;4935350;29;20575;-69
2022/10/20 11:10:50;;;;;;;13.45;8.23;;;12.10;99.90;;;;;;4951448;29;20397;-68
2022/10/20 11:13:25;;;;;;;10.35;8.82;;;12.10;99.90;;;;;;4937648;29;20090;-69
2022/10/20 11:16:14;;;;;;;9.40;7.75;;;12.20;99.90;;;;;;4951753;28;20062;-68
2022/10/20 11:18:49;;;;;;;14.75;8.15;;;12.20;99.90;;;;;;4950902;29;20382;-68
2022/10/20 11:21:26;;;;;;;10.25;7.57;;;12.30;99.90;;;;;;4952670;29;20046;-68
2022/10/20 11:23:58;;;;;;;14.52;8.23;;;12.40;99.90;;;;;;4947591;29;20067;-68
2022/10/20 11:26:34;;;;;;;9.57;7.72;;;12.60;99.90;;;;;;4952145;28;20047;-68
2022/10/20 11:29:02;;;;;;;14.82;8.55;;;12.70;99.90;;;;;;4949928;28;20046;-68
2022/10/20 11:31:43;;;;;;;12.60;7.72;;;12.80;99.90;;;;;;4954649;29;20743;-69
2022/10/20 11:34:15;;;;;;;10.88;7.78;;;13.20;99.90;;;;;;4956020;29;20657;-69
2022/10/20 11:36:46;;;;;;;9.47;8.00;;;12.70;99.90;;;;;;4969845;28;20035;-69
2022/10/20 11:39:53;;;;;;;12.07;8.52;;;12.70;99.90;;;;;;4955947;28;20109;-68
2022/10/20 11:42:26;;;;;;;12.60;8.20;;;12.70;99.90;;;;;;4950994;29;20043;-69
2022/10/20 11:44:55;;;;;;;13.45;8.63;;;12.60;99.90;;;;;;4951836;28;20110;-69
2022/10/20 11:47:29;;;;;;;14.70;8.48;;;12.80;99.90;;;;;;4947359;28;20098;-69
2022/10/20 11:49:55;;;;;;;14.25;9.13;;;12.70;99.90;;;;;;4947767;28;20079;-68
2022/10/20 11:52:59;;;;;;;12.48;8.55;;;12.70;99.90;;;;;;4947684;28;20565;-69
2022/10/20 11:55:43;;;;;;;11.43;8.35;;;12.70;99.90;;;;;;4935818;29;20046;-69
2022/10/20 11:58:20;;;;;;;13.90;8.57;;;12.70;99.90;;;;;;4948558;23;20055;-86
2022/10/20 12:01:04;;;;;;;17.23;9.45;;;12.60;99.90;;;;;;4962688;28;20866;-82
2022/10/20 12:03:39;;;;;;;14.15;8.38;;;12.70;99.90;;;;;;4949818;28;20043;-83
2022/10/20 12:06:33;;;;;;;12.80;9.27;;;12.60;99.90;;;;;;4943154;28;20145;-82
2022/10/20 12:09:45;;;;;;;11.95;8.57;;;12.60;99.90;;;;;;4947148;28;20050;-84
2022/10/20 12:12:27;;;;;;;13.38;9.07;;;12.60;99.90;;;;;;4943468;28;20047;-84
2022/10/20 12:14:58;;;;;;;10.80;9.40;;;12.60;99.90;;;;;;4963753;28;20035;-83
2022/10/20 12:17:26;;;;;;;12.15;9.50;;;12.50;99.90;;;;;;4960328;28;20169;-81
2022/10/20 12:20:32;;;;;;;12.23;9.27;;;12.50;99.90;;;;;;4943767;28;20412;-84
2022/10/20 12:22:58;;;;;;;13.35;9.35;;;12.40;99.90;;;;;;4913031;28;20066;-83
2022/10/20 12:25:23;;;;;;;13.32;9.50;;;12.40;99.90;;;;;;4934762;28;20038;-83
2022/10/20 12:28:23;;;;;;;12.23;9.25;;;12.50;99.90;;;;;;4947338;28;20504;-83
2022/10/20 12:30:59;;;;;;;13.02;9.40;;;12.40;99.90;;;;;;4961672;28;20035;-88
2022/10/20 12:33:38;;;;;;;13.75;9.02;;;12.40;99.90;;;;;;4957592;28;20066;-82
2022/10/20 12:36:30;;;;;;;15.07;10.20;;;12.40;99.90;;;;;;4948484;28;20043;-82
2022/10/20 12:39:27;;;;;;;13.80;9.68;;;12.40;99.90;;;;;;4961515;28;20517;-82
2022/10/20 12:42:04;;;;;;;13.68;9.82;;;12.30;99.90;;;;;;4974332;28;20051;-80
2022/10/20 12:44:44;;;;;;;16.55;10.73;;;12.30;99.90;;;;;;4945504;28;20046;-96
2022/10/20 12:47:20;;;;;;;14.70;10.40;;;12.20;99.90;;;;;;4953261;28;20043;-90
2022/10/20 12:50:01;;;;;;;13.85;10.25;;;12.20;99.90;;;;;;4973994;28;20042;-94
2022/10/20 12:52:31;;;;;;;17.20;11.15;;;12.20;99.90;;;;;;4964481;28;20042;-84
2022/10/20 12:55:12;;;;;;;16.80;10.77;;;12.10;99.90;;;;;;4950665;28;20439;-88
2022/10/20 12:57:40;;;;;;;15.77;11.07;;;12.10;99.90;;;;;;4950750;28;20510;-87
2022/10/20 13:00:26;;;;;;;16.60;11.15;;;12.10;99.90;;;;;;4948454;28;20525;-84
2022/10/20 13:02:54;;;;;;;16.73;11.80;;;12.00;99.90;;;;;;4945706;28;20046;-87